»·PEaware :: N416JK KCCR-O22

N416JK :: KCCR-O22

FLIGHT INFORMATION

Flight Status: Arrived
Operator: Privately registered:
United States
More flights under this callsign
Pilot: John K. (4202)
Aircraft: PIPER PA-32 SARATOGA
(PA32)
More flights by this aircraft type
Origin: KCCR Buchanan
United States
Destination: O22 Columbia
United States
More flights between these airports :: More routes between these airports
Route: BCHN2 PITTS OAKEY LODDI LIN
File this flight plan on PilotEdge
Remarks:
Altitude:
(Current/Filed)
5,000ft
Speed:
(Current/Filed)
150kts
Departed: 14-May-19 12:07 PM
Arrived: 14-May-19 12:39 PM
Distance/Time
Traveled:
78nm/0:32
Distance/Time
To Go:
Arrived

Flight Plot

Page will automatically refresh every two minutes.

Flight plan parsing failed; only flown route is shown


Map Options




Map Legend


Flown Route
Filed Route
Departure Airport
Arrival Airport
Navaid (VOR, NDB)
Fix

Horizontal Profiles

Position Reports

Time Latitude Longitude Heading Altitude Ground
Speed
14-May-19 11:55 37.984690 -122.054038 23 29ft 0kts
14-May-19 11:56 37.984690 -122.054038 23 29ft 0kts
14-May-19 11:57 37.984690 -122.054038 23 29ft 0kts
14-May-19 11:58 37.984690 -122.054038 23 29ft 0kts
14-May-19 11:59 37.984690 -122.054038 23 29ft 0kts
14-May-19 12:00 37.984690 -122.054038 23 29ft 0kts
14-May-19 12:01 37.984690 -122.054038 23 29ft 0kts
14-May-19 12:02 37.984690 -122.054038 23 29ft 0kts
14-May-19 12:03 37.984690 -122.054038 23 29ft 0kts
14-May-19 12:04 37.985372 -122.053495 42 29ft 6kts
14-May-19 12:05 37.985352 -122.052759 93 29ft 6kts
14-May-19 12:06 37.992192 -122.056082 331 117ft 87kts
14-May-19 12:07 38.018830 -122.052197 5 1168ft 117kts
14-May-19 12:08 38.045350 -122.027529 84 2064ft 149kts
14-May-19 12:09 38.047205 -121.974278 88 2965ft 152kts
14-May-19 12:10 38.048876 -121.920753 89 3867ft 153kts
14-May-19 12:11 38.050565 -121.866629 90 4778ft 154kts
14-May-19 12:12 38.052391 -121.806634 91 4949ft 187kts
14-May-19 12:13 38.054436 -121.739247 91 5010ft 192kts
14-May-19 12:14 38.056448 -121.671233 91 5011ft 193kts
14-May-19 12:15 38.058407 -121.603797 91 5011ft 194kts
14-May-19 12:16 38.060444 -121.535295 90 5011ft 194kts
14-May-19 12:17 38.062320 -121.466709 91 5012ft 194kts
14-May-19 12:18 38.064176 -121.398109 90 5003ft 193kts
14-May-19 12:19 38.066094 -121.330284 90 5000ft 193kts
14-May-19 12:20 38.067993 -121.265120 91 5000ft 183kts
14-May-19 12:21 38.069623 -121.201487 90 5000ft 179kts
14-May-19 12:22 38.071227 -121.138066 90 5000ft 179kts
14-May-19 12:23 38.072791 -121.075009 91 5001ft 178kts
14-May-19 12:24 38.074311 -121.012081 90 5001ft 179kts
14-May-19 12:25 38.070567 -120.949485 98 5001ft 177kts
14-May-19 12:26 38.066000 -120.887414 98 5019ft 178kts
14-May-19 12:27 38.061339 -120.824279 97 5019ft 180kts
14-May-19 12:28 38.056639 -120.760892 97 5018ft 178kts
14-May-19 12:29 38.052367 -120.703706 97 5018ft 152kts
14-May-19 12:30 38.048615 -120.653741 97 5018ft 135kts
14-May-19 12:31 38.045182 -120.608238 99 5037ft 124kts
14-May-19 12:32 38.042207 -120.568611 100 5034ft 102kts
14-May-19 12:33 38.039770 -120.536420 101 5042ft 89kts
14-May-19 12:34 38.039544 -120.505870 85 4675ft 92kts
14-May-19 12:35 38.042427 -120.475318 88 3738ft 89kts
14-May-19 12:36 38.043244 -120.445874 100 3090ft 86kts
14-May-19 12:37 38.042035 -120.416587 115 2464ft 78kts
14-May-19 12:38 38.028752 -120.413408 174 2121ft 12kts
14-May-19 12:39 38.028341 -120.412461 26 2122ft 0kts
14-May-19 12:40 38.028341 -120.412461 26 2122ft 0kts
14-May-19 12:41 38.028341 -120.412461 26 2122ft 0kts
14-May-19 12:42 38.028341 -120.412461 26 2122ft 0kts
14-May-19 12:43 38.028341 -120.412461 26 2122ft 0kts
14-May-19 12:44 38.028341 -120.412461 26 2122ft 0kts
14-May-19 12:45 38.028341 -120.412461 26 2122ft 0kts
14-May-19 12:46 38.028341 -120.412461 26 2122ft 0kts
14-May-19 12:47 38.028341 -120.412461 26 2122ft 0kts
14-May-19 12:48 38.028341 -120.412461 26 2122ft 0kts
14-May-19 12:49 38.028341 -120.412461 26 2122ft 0kts
14-May-19 12:50 38.028341 -120.412461 26 2122ft 0kts
14-May-19 12:51 38.028341 -120.412461 26 2122ft 0kts
14-May-19 12:53 38.028341 -120.412461 26 2122ft 0kts
14-May-19 12:54 38.028341 -120.412461 26 2122ft 0kts

Navigation Log

Ident Type
Flight plan parsing failed, navigation log unavailable